sensor_id;sensor_type;location;lat;lon;timestamp;P1;durP1;ratioP1;P2;durP2;ratioP2
80584;SDS011;70137;56.482;9.154;2023-05-31T00:01:01;8.55;;;2.80;;
80584;SDS011;70137;56.482;9.154;2023-05-31T00:03:27;7.10;;;3.28;;
80584;SDS011;70137;56.482;9.154;2023-05-31T00:05:52;8.65;;;2.97;;
80584;SDS011;70137;56.482;9.154;2023-05-31T00:08:17;8.05;;;2.75;;
80584;SDS011;70137;56.482;9.154;2023-05-31T00:10:43;12.68;;;3.30;;
80584;SDS011;70137;56.482;9.154;2023-05-31T00:13:09;9.27;;;3.20;;
80584;SDS011;70137;56.482;9.154;2023-05-31T00:15:34;11.52;;;3.00;;
80584;SDS011;70137;56.482;9.154;2023-05-31T00:18:00;13.07;;;3.88;;
80584;SDS011;70137;56.482;9.154;2023-05-31T00:20:25;11.68;;;3.33;;
80584;SDS011;70137;56.482;9.154;2023-05-31T00:22:50;13.15;;;3.53;;
80584;SDS011;70137;56.482;9.154;2023-05-31T00:25:16;16.42;;;4.30;;
80584;SDS011;70137;56.482;9.154;2023-05-31T00:27:41;13.65;;;3.90;;
80584;SDS011;70137;56.482;9.154;2023-05-31T00:30:06;17.42;;;4.15;;
80584;SDS011;70137;56.482;9.154;2023-05-31T00:32:32;13.30;;;4.35;;
80584;SDS011;70137;56.482;9.154;2023-05-31T00:34:58;15.48;;;4.45;;
80584;SDS011;70137;56.482;9.154;2023-05-31T00:37:23;14.73;;;3.42;;
80584;SDS011;70137;56.482;9.154;2023-05-31T00:39:48;14.57;;;3.80;;
80584;SDS011;70137;56.482;9.154;2023-05-31T00:42:13;13.65;;;3.75;;
80584;SDS011;70137;56.482;9.154;2023-05-31T00:44:39;18.48;;;4.72;;
80584;SDS011;70137;56.482;9.154;2023-05-31T00:47:04;17.90;;;3.85;;
80584;SDS011;70137;56.482;9.154;2023-05-31T00:49:30;16.38;;;4.15;;
80584;SDS011;70137;56.482;9.154;2023-05-31T00:51:56;15.48;;;4.20;;
80584;SDS011;70137;56.482;9.154;2023-05-31T00:54:21;14.27;;;3.70;;
80584;SDS011;70137;56.482;9.154;2023-05-31T00:56:47;18.20;;;5.18;;
80584;SDS011;70137;56.482;9.154;2023-05-31T00:59:13;19.27;;;4.80;;
80584;SDS011;70137;56.482;9.154;2023-05-31T01:01:40;17.90;;;4.72;;
80584;SDS011;70137;56.482;9.154;2023-05-31T01:04:06;23.05;;;4.20;;
80584;SDS011;70137;56.482;9.154;2023-05-31T01:06:32;14.48;;;3.58;;
80584;SDS011;70137;56.482;9.154;2023-05-31T01:09:00;14.70;;;3.88;;
80584;SDS011;70137;56.482;9.154;2023-05-31T01:11:35;19.02;;;5.05;;
80584;SDS011;70137;56.482;9.154;2023-05-31T01:16:50;17.45;;;4.43;;
80584;SDS011;70137;56.482;9.154;2023-05-31T01:19:43;12.80;;;4.25;;
80584;SDS011;70137;56.482;9.154;2023-05-31T01:27:39;15.82;;;4.05;;
80584;SDS011;70137;56.482;9.154;2023-05-31T01:30:07;19.65;;;4.82;;
80584;SDS011;70137;56.482;9.154;2023-05-31T01:32:34;17.42;;;4.63;;
80584;SDS011;70137;56.482;9.154;2023-05-31T01:35:02;22.67;;;4.68;;
80584;SDS011;70137;56.482;9.154;2023-05-31T01:37:28;13.90;;;4.13;;
80584;SDS011;70137;56.482;9.154;2023-05-31T01:39:53;14.95;;;3.85;;
80584;SDS011;70137;56.482;9.154;2023-05-31T01:42:20;20.58;;;4.40;;
80584;SDS011;70137;56.482;9.154;2023-05-31T01:44:46;17.88;;;4.38;;
80584;SDS011;70137;56.482;9.154;2023-05-31T01:47:13;18.25;;;4.28;;
80584;SDS011;70137;56.482;9.154;2023-05-31T01:49:40;20.77;;;4.68;;
80584;SDS011;70137;56.482;9.154;2023-05-31T01:52:07;21.25;;;4.72;;
80584;SDS011;70137;56.482;9.154;2023-05-31T01:54:37;17.13;;;4.68;;
80584;SDS011;70137;56.482;9.154;2023-05-31T01:57:03;18.38;;;4.43;;
80584;SDS011;70137;56.482;9.154;2023-05-31T01:59:30;14.38;;;4.07;;
80584;SDS011;70137;56.482;9.154;2023-05-31T02:02:02;15.70;;;4.57;;
80584;SDS011;70137;56.482;9.154;2023-05-31T02:04:27;20.25;;;4.88;;
80584;SDS011;70137;56.482;9.154;2023-05-31T02:06:53;17.25;;;4.20;;
80584;SDS011;70137;56.482;9.154;2023-05-31T02:09:19;18.20;;;4.80;;
80584;SDS011;70137;56.482;9.154;2023-05-31T02:11:46;15.95;;;4.80;;
80584;SDS011;70137;56.482;9.154;2023-05-31T02:14:11;13.73;;;4.63;;
80584;SDS011;70137;56.482;9.154;2023-05-31T02:16:37;12.55;;;3.55;;
80584;SDS011;70137;56.482;9.154;2023-05-31T02:19:02;10.93;;;3.53;;
80584;SDS011;70137;56.482;9.154;2023-05-31T02:21:28;22.45;;;4.65;;
80584;SDS011;70137;56.482;9.154;2023-05-31T02:23:53;17.95;;;4.68;;
80584;SDS011;70137;56.482;9.154;2023-05-31T02:26:19;16.88;;;4.30;;
80584;SDS011;70137;56.482;9.154;2023-05-31T02:28:45;20.50;;;4.40;;
80584;SDS011;70137;56.482;9.154;2023-05-31T02:31:10;18.40;;;4.70;;
80584;SDS011;70137;56.482;9.154;2023-05-31T02:33:35;18.80;;;4.47;;
80584;SDS011;70137;56.482;9.154;2023-05-31T02:36:00;15.23;;;4.35;;
80584;SDS011;70137;56.482;9.154;2023-05-31T02:38:26;16.42;;;4.47;;
80584;SDS011;70137;56.482;9.154;2023-05-31T02:40:53;18.42;;;4.65;;
80584;SDS011;70137;56.482;9.154;2023-05-31T02:43:19;12.63;;;4.07;;
80584;SDS011;70137;56.482;9.154;2023-05-31T02:45:44;17.75;;;4.28;;
80584;SDS011;70137;56.482;9.154;2023-05-31T02:48:10;19.13;;;4.95;;
80584;SDS011;70137;56.482;9.154;2023-05-31T02:50:35;20.63;;;4.80;;
80584;SDS011;70137;56.482;9.154;2023-05-31T02:53:00;14.60;;;4.13;;
80584;SDS011;70137;56.482;9.154;2023-05-31T02:55:29;15.70;;;4.10;;
80584;SDS011;70137;56.482;9.154;2023-05-31T02:57:54;16.80;;;4.90;;
80584;SDS011;70137;56.482;9.154;2023-05-31T03:00:19;17.90;;;5.10;;
80584;SDS011;70137;56.482;9.154;2023-05-31T03:02:45;22.20;;;4.95;;
80584;SDS011;70137;56.482;9.154;2023-05-31T03:05:11;17.48;;;4.78;;
80584;SDS011;70137;56.482;9.154;2023-05-31T03:07:36;19.70;;;5.13;;
80584;SDS011;70137;56.482;9.154;2023-05-31T03:10:01;18.08;;;5.40;;
80584;SDS011;70137;56.482;9.154;2023-05-31T03:12:30;19.95;;;5.05;;
80584;SDS011;70137;56.482;9.154;2023-05-31T03:14:56;22.35;;;5.55;;
80584;SDS011;70137;56.482;9.154;2023-05-31T03:17:21;16.48;;;5.30;;
80584;SDS011;70137;56.482;9.154;2023-05-31T03:19:47;18.52;;;5.25;;
80584;SDS011;70137;56.482;9.154;2023-05-31T03:22:12;17.15;;;4.57;;
80584;SDS011;70137;56.482;9.154;2023-05-31T03:24:37;18.73;;;4.70;;
80584;SDS011;70137;56.482;9.154;2023-05-31T03:27:03;21.80;;;4.80;;
80584;SDS011;70137;56.482;9.154;2023-05-31T03:29:28;17.90;;;4.78;;
80584;SDS011;70137;56.482;9.154;2023-05-31T03:31:54;19.45;;;4.85;;
80584;SDS011;70137;56.482;9.154;2023-05-31T03:34:20;14.70;;;4.20;;
80584;SDS011;70137;56.482;9.154;2023-05-31T03:36:46;21.88;;;4.82;;
80584;SDS011;70137;56.482;9.154;2023-05-31T03:39:11;15.48;;;4.80;;
80584;SDS011;70137;56.482;9.154;2023-05-31T03:41:37;13.38;;;4.18;;
80584;SDS011;70137;56.482;9.154;2023-05-31T03:44:02;14.80;;;4.22;;
80584;SDS011;70137;56.482;9.154;2023-05-31T03:46:27;16.90;;;4.55;;
80584;SDS011;70137;56.482;9.154;2023-05-31T03:48:54;14.70;;;4.22;;
80584;SDS011;70137;56.482;9.154;2023-05-31T03:51:19;15.95;;;4.57;;
80584;SDS011;70137;56.482;9.154;2023-05-31T03:53:45;12.85;;;4.03;;
80584;SDS011;70137;56.482;9.154;2023-05-31T03:56:10;12.38;;;4.38;;
80584;SDS011;70137;56.482;9.154;2023-05-31T03:58:35;16.92;;;4.50;;
80584;SDS011;70137;56.482;9.154;2023-05-31T04:01:01;17.98;;;4.60;;
80584;SDS011;70137;56.482;9.154;2023-05-31T04:03:27;14.35;;;4.47;;
80584;SDS011;70137;56.482;9.154;2023-05-31T04:05:53;20.33;;;4.75;;
80584;SDS011;70137;56.482;9.154;2023-05-31T04:08:18;19.95;;;5.05;;
80584;SDS011;70137;56.482;9.154;2023-05-31T04:10:43;14.57;;;4.60;;
80584;SDS011;70137;56.482;9.154;2023-05-31T04:13:09;12.82;;;4.10;;
80584;SDS011;70137;56.482;9.154;2023-05-31T04:15:35;13.80;;;3.95;;
80584;SDS011;70137;56.482;9.154;2023-05-31T04:18:00;19.10;;;4.03;;
80584;SDS011;70137;56.482;9.154;2023-05-31T04:20:26;14.95;;;4.07;;
80584;SDS011;70137;56.482;9.154;2023-05-31T04:22:51;15.18;;;3.63;;
80584;SDS011;70137;56.482;9.154;2023-05-31T04:25:18;19.40;;;4.38;;
80584;SDS011;70137;56.482;9.154;2023-05-31T04:27:44;14.02;;;3.35;;
80584;SDS011;70137;56.482;9.154;2023-05-31T04:30:09;16.75;;;3.38;;
80584;SDS011;70137;56.482;9.154;2023-05-31T04:32:35;12.27;;;3.17;;
80584;SDS011;70137;56.482;9.154;2023-05-31T04:35:01;16.60;;;4.10;;
80584;SDS011;70137;56.482;9.154;2023-05-31T04:37:29;14.63;;;4.20;;
80584;SDS011;70137;56.482;9.154;2023-05-31T04:39:55;14.50;;;3.97;;
80584;SDS011;70137;56.482;9.154;2023-05-31T04:42:22;11.40;;;3.95;;
80584;SDS011;70137;56.482;9.154;2023-05-31T04:44:50;12.20;;;3.85;;
80584;SDS011;70137;56.482;9.154;2023-05-31T04:47:16;12.25;;;3.63;;
80584;SDS011;70137;56.482;9.154;2023-05-31T04:49:44;13.63;;;3.63;;
80584;SDS011;70137;56.482;9.154;2023-05-31T04:52:10;18.88;;;3.58;;
80584;SDS011;70137;56.482;9.154;2023-05-31T04:54:36;15.50;;;3.63;;
80584;SDS011;70137;56.482;9.154;2023-05-31T04:57:01;11.43;;;3.67;;
80584;SDS011;70137;56.482;9.154;2023-05-31T04:59:27;13.45;;;3.78;;
80584;SDS011;70137;56.482;9.154;2023-05-31T05:01:53;12.48;;;3.42;;
80584;SDS011;70137;56.482;9.154;2023-05-31T05:04:18;13.57;;;3.55;;
80584;SDS011;70137;56.482;9.154;2023-05-31T05:06:43;19.23;;;3.92;;
80584;SDS011;70137;56.482;9.154;2023-05-31T05:09:09;14.70;;;3.47;;
80584;SDS011;70137;56.482;9.154;2023-05-31T05:11:34;19.20;;;4.13;;
80584;SDS011;70137;56.482;9.154;2023-05-31T05:14:00;14.40;;;3.63;;
80584;SDS011;70137;56.482;9.154;2023-05-31T05:16:25;12.02;;;3.33;;
80584;SDS011;70137;56.482;9.154;2023-05-31T05:18:51;13.75;;;3.22;;
80584;SDS011;70137;56.482;9.154;2023-05-31T05:21:16;15.20;;;3.72;;
80584;SDS011;70137;56.482;9.154;2023-05-31T05:23:41;13.32;;;3.67;;
80584;SDS011;70137;56.482;9.154;2023-05-31T05:26:07;11.52;;;2.80;;
80584;SDS011;70137;56.482;9.154;2023-05-31T05:28:33;15.57;;;3.75;;
80584;SDS011;70137;56.482;9.154;2023-05-31T05:30:58;15.02;;;3.30;;
80584;SDS011;70137;56.482;9.154;2023-05-31T05:33:23;12.90;;;3.20;;
80584;SDS011;70137;56.482;9.154;2023-05-31T05:35:49;10.90;;;3.58;;
80584;SDS011;70137;56.482;9.154;2023-05-31T05:38:15;11.23;;;3.42;;
80584;SDS011;70137;56.482;9.154;2023-05-31T05:40:40;13.02;;;3.65;;
80584;SDS011;70137;56.482;9.154;2023-05-31T05:43:05;13.55;;;3.60;;
80584;SDS011;70137;56.482;9.154;2023-05-31T05:45:31;16.02;;;3.60;;
80584;SDS011;70137;56.482;9.154;2023-05-31T05:47:56;15.20;;;3.50;;
80584;SDS011;70137;56.482;9.154;2023-05-31T05:50:22;18.52;;;4.28;;
80584;SDS011;70137;56.482;9.154;2023-05-31T05:52:47;12.38;;;3.35;;
80584;SDS011;70137;56.482;9.154;2023-05-31T05:55:12;13.07;;;3.00;;
80584;SDS011;70137;56.482;9.154;2023-05-31T05:57:37;14.18;;;3.80;;
80584;SDS011;70137;56.482;9.154;2023-05-31T06:00:03;23.60;;;4.20;;
80584;SDS011;70137;56.482;9.154;2023-05-31T06:02:39;15.18;;;3.35;;
80584;SDS011;70137;56.482;9.154;2023-05-31T06:05:05;14.98;;;3.45;;
80584;SDS011;70137;56.482;9.154;2023-05-31T06:07:31;18.35;;;3.40;;
80584;SDS011;70137;56.482;9.154;2023-05-31T06:09:56;17.88;;;3.42;;
80584;SDS011;70137;56.482;9.154;2023-05-31T06:12:22;12.07;;;3.20;;
80584;SDS011;70137;56.482;9.154;2023-05-31T06:14:48;16.20;;;3.50;;
80584;SDS011;70137;56.482;9.154;2023-05-31T06:17:13;14.32;;;3.55;;
80584;SDS011;70137;56.482;9.154;2023-05-31T06:19:39;13.20;;;3.60;;
80584;SDS011;70137;56.482;9.154;2023-05-31T06:22:04;17.88;;;3.70;;
80584;SDS011;70137;56.482;9.154;2023-05-31T06:24:30;19.05;;;3.30;;
80584;SDS011;70137;56.482;9.154;2023-05-31T06:26:55;19.13;;;4.00;;
80584;SDS011;70137;56.482;9.154;2023-05-31T06:29:20;17.85;;;3.97;;
80584;SDS011;70137;56.482;9.154;2023-05-31T06:31:45;18.25;;;3.17;;
80584;SDS011;70137;56.482;9.154;2023-05-31T06:34:11;16.65;;;3.63;;
80584;SDS011;70137;56.482;9.154;2023-05-31T06:36:36;16.15;;;3.35;;
80584;SDS011;70137;56.482;9.154;2023-05-31T06:39:02;12.77;;;3.20;;
80584;SDS011;70137;56.482;9.154;2023-05-31T06:41:28;17.05;;;3.53;;
80584;SDS011;70137;56.482;9.154;2023-05-31T06:43:54;12.48;;;3.20;;
80584;SDS011;70137;56.482;9.154;2023-05-31T06:46:20;14.63;;;3.10;;
80584;SDS011;70137;56.482;9.154;2023-05-31T06:48:45;11.98;;;3.00;;
80584;SDS011;70137;56.482;9.154;2023-05-31T06:51:10;15.35;;;3.13;;
80584;SDS011;70137;56.482;9.154;2023-05-31T06:53:36;15.93;;;3.30;;
80584;SDS011;70137;56.482;9.154;2023-05-31T06:56:01;12.75;;;3.05;;
80584;SDS011;70137;56.482;9.154;2023-05-31T06:58:30;12.70;;;3.38;;
80584;SDS011;70137;56.482;9.154;2023-05-31T07:00:58;12.93;;;2.97;;
80584;SDS011;70137;56.482;9.154;2023-05-31T07:03:23;14.18;;;3.28;;
80584;SDS011;70137;56.482;9.154;2023-05-31T07:05:49;15.55;;;2.72;;
80584;SDS011;70137;56.482;9.154;2023-05-31T07:08:15;13.95;;;3.13;;
80584;SDS011;70137;56.482;9.154;2023-05-31T07:10:41;11.75;;;3.03;;
80584;SDS011;70137;56.482;9.154;2023-05-31T07:13:06;13.02;;;2.83;;
80584;SDS011;70137;56.482;9.154;2023-05-31T07:15:33;11.15;;;2.78;;
80584;SDS011;70137;56.482;9.154;2023-05-31T07:17:58;14.32;;;2.58;;
80584;SDS011;70137;56.482;9.154;2023-05-31T07:20:23;15.85;;;3.17;;
80584;SDS011;70137;56.482;9.154;2023-05-31T07:22:49;13.38;;;2.67;;
80584;SDS011;70137;56.482;9.154;2023-05-31T07:25:16;11.55;;;2.42;;
80584;SDS011;70137;56.482;9.154;2023-05-31T07:27:41;19.23;;;3.88;;
80584;SDS011;70137;56.482;9.154;2023-05-31T07:30:06;13.18;;;2.70;;
80584;SDS011;70137;56.482;9.154;2023-05-31T07:32:32;17.63;;;3.97;;
80584;SDS011;70137;56.482;9.154;2023-05-31T07:34:58;14.65;;;2.85;;
80584;SDS011;70137;56.482;9.154;2023-05-31T07:37:23;10.38;;;2.38;;
80584;SDS011;70137;56.482;9.154;2023-05-31T07:39:48;12.77;;;2.33;;
80584;SDS011;70137;56.482;9.154;2023-05-31T07:42:14;16.25;;;2.92;;
80584;SDS011;70137;56.482;9.154;2023-05-31T07:44:39;16.13;;;2.90;;
80584;SDS011;70137;56.482;9.154;2023-05-31T07:47:04;12.48;;;2.63;;
80584;SDS011;70137;56.482;9.154;2023-05-31T07:49:30;13.98;;;2.58;;
80584;SDS011;70137;56.482;9.154;2023-05-31T07:51:55;13.45;;;2.50;;
80584;SDS011;70137;56.482;9.154;2023-05-31T07:54:20;11.52;;;2.55;;
80584;SDS011;70137;56.482;9.154;2023-05-31T07:56:46;14.15;;;2.63;;
80584;SDS011;70137;56.482;9.154;2023-05-31T07:59:11;15.77;;;2.95;;
80584;SDS011;70137;56.482;9.154;2023-05-31T08:01:37;15.82;;;2.65;;
80584;SDS011;70137;56.482;9.154;2023-05-31T08:04:07;12.88;;;2.05;;
80584;SDS011;70137;56.482;9.154;2023-05-31T08:06:34;8.45;;;2.20;;
80584;SDS011;70137;56.482;9.154;2023-05-31T08:09:02;12.00;;;2.08;;
80584;SDS011;70137;56.482;9.154;2023-05-31T08:11:29;12.73;;;2.13;;
80584;SDS011;70137;56.482;9.154;2023-05-31T08:13:55;13.45;;;2.30;;
80584;SDS011;70137;56.482;9.154;2023-05-31T08:16:20;13.43;;;3.22;;
80584;SDS011;70137;56.482;9.154;2023-05-31T08:18:45;12.57;;;2.17;;
80584;SDS011;70137;56.482;9.154;2023-05-31T08:21:10;10.38;;;2.38;;
80584;SDS011;70137;56.482;9.154;2023-05-31T08:23:36;13.27;;;2.30;;
80584;SDS011;70137;56.482;9.154;2023-05-31T08:26:01;15.93;;;1.95;;
80584;SDS011;70137;56.482;9.154;2023-05-31T08:28:27;13.60;;;2.28;;
80584;SDS011;70137;56.482;9.154;2023-05-31T08:30:54;12.20;;;2.08;;
80584;SDS011;70137;56.482;9.154;2023-05-31T08:33:20;7.97;;;1.50;;
80584;SDS011;70137;56.482;9.154;2023-05-31T08:35:45;15.07;;;2.20;;
80584;SDS011;70137;56.482;9.154;2023-05-31T08:38:10;12.73;;;2.20;;
80584;SDS011;70137;56.482;9.154;2023-05-31T08:40:36;9.52;;;1.83;;
80584;SDS011;70137;56.482;9.154;2023-05-31T08:43:06;10.43;;;1.90;;
80584;SDS011;70137;56.482;9.154;2023-05-31T08:45:40;11.52;;;1.98;;
80584;SDS011;70137;56.482;9.154;2023-05-31T08:50:42;12.50;;;2.30;;
80584;SDS011;70137;56.482;9.154;2023-05-31T08:53:08;10.10;;;1.85;;
80584;SDS011;70137;56.482;9.154;2023-05-31T08:55:34;13.60;;;1.73;;
80584;SDS011;70137;56.482;9.154;2023-05-31T08:58:01;12.13;;;1.65;;
80584;SDS011;70137;56.482;9.154;2023-05-31T09:00:27;12.82;;;1.92;;
80584;SDS011;70137;56.482;9.154;2023-05-31T09:02:53;8.25;;;1.40;;
80584;SDS011;70137;56.482;9.154;2023-05-31T09:05:18;4.95;;;1.52;;
80584;SDS011;70137;56.482;9.154;2023-05-31T09:07:45;8.48;;;2.30;;
80584;SDS011;70137;56.482;9.154;2023-05-31T09:10:12;7.15;;;1.70;;
80584;SDS011;70137;56.482;9.154;2023-05-31T09:12:40;8.95;;;1.38;;
80584;SDS011;70137;56.482;9.154;2023-05-31T09:15:05;8.15;;;1.88;;
80584;SDS011;70137;56.482;9.154;2023-05-31T09:17:31;8.82;;;1.83;;
80584;SDS011;70137;56.482;9.154;2023-05-31T09:19:56;11.63;;;1.90;;
80584;SDS011;70137;56.482;9.154;2023-05-31T09:22:22;8.00;;;1.80;;
80584;SDS011;70137;56.482;9.154;2023-05-31T09:24:54;8.77;;;1.60;;
80584;SDS011;70137;56.482;9.154;2023-05-31T09:27:21;14.07;;;2.00;;
80584;SDS011;70137;56.482;9.154;2023-05-31T09:29:50;8.57;;;1.95;;
80584;SDS011;70137;56.482;9.154;2023-05-31T09:32:17;12.32;;;2.33;;
80584;SDS011;70137;56.482;9.154;2023-05-31T09:34:43;11.35;;;1.77;;
80584;SDS011;70137;56.482;9.154;2023-05-31T09:37:08;8.80;;;2.20;;
80584;SDS011;70137;56.482;9.154;2023-05-31T09:39:34;8.80;;;2.20;;
80584;SDS011;70137;56.482;9.154;2023-05-31T09:41:59;9.05;;;1.90;;
80584;SDS011;70137;56.482;9.154;2023-05-31T09:44:28;8.30;;;1.70;;
80584;SDS011;70137;56.482;9.154;2023-05-31T09:46:54;10.50;;;1.58;;
80584;SDS011;70137;56.482;9.154;2023-05-31T09:49:19;8.95;;;1.88;;
80584;SDS011;70137;56.482;9.154;2023-05-31T09:51:51;14.98;;;1.92;;
80584;SDS011;70137;56.482;9.154;2023-05-31T09:54:17;12.30;;;1.83;;
80584;SDS011;70137;56.482;9.154;2023-05-31T09:56:47;8.95;;;2.10;;
80584;SDS011;70137;56.482;9.154;2023-05-31T09:59:16;11.82;;;2.22;;
80584;SDS011;70137;56.482;9.154;2023-05-31T10:01:41;11.35;;;2.28;;
80584;SDS011;70137;56.482;9.154;2023-05-31T10:04:07;10.93;;;2.40;;
80584;SDS011;70137;56.482;9.154;2023-05-31T10:06:32;6.28;;;1.80;;
80584;SDS011;70137;56.482;9.154;2023-05-31T10:09:04;14.30;;;2.30;;
80584;SDS011;70137;56.482;9.154;2023-05-31T10:11:37;8.65;;;2.00;;
80584;SDS011;70137;56.482;9.154;2023-05-31T10:14:07;8.73;;;2.03;;
80584;SDS011;70137;56.482;9.154;2023-05-31T10:17:11;13.77;;;3.00;;
80584;SDS011;70137;56.482;9.154;2023-05-31T10:19:39;11.50;;;2.17;;
80584;SDS011;70137;56.482;9.154;2023-05-31T10:22:10;12.55;;;2.25;;
80584;SDS011;70137;56.482;9.154;2023-05-31T10:24:43;12.32;;;2.38;;
80584;SDS011;70137;56.482;9.154;2023-05-31T10:27:29;10.13;;;2.35;;
80584;SDS011;70137;56.482;9.154;2023-05-31T10:29:56;14.10;;;2.25;;
80584;SDS011;70137;56.482;9.154;2023-05-31T10:32:32;13.80;;;2.65;;
80584;SDS011;70137;56.482;9.154;2023-05-31T10:34:58;12.70;;;2.13;;
80584;SDS011;70137;56.482;9.154;2023-05-31T10:37:25;9.45;;;2.20;;
80584;SDS011;70137;56.482;9.154;2023-05-31T10:40:06;8.52;;;1.95;;
80584;SDS011;70137;56.482;9.154;2023-05-31T10:42:40;12.13;;;2.45;;
80584;SDS011;70137;56.482;9.154;2023-05-31T10:45:20;9.18;;;2.25;;
80584;SDS011;70137;56.482;9.154;2023-05-31T10:47:55;15.88;;;2.70;;
80584;SDS011;70137;56.482;9.154;2023-05-31T10:50:26;8.43;;;2.22;;
80584;SDS011;70137;56.482;9.154;2023-05-31T10:52:53;8.05;;;2.33;;
80584;SDS011;70137;56.482;9.154;2023-05-31T10:55:34;10.52;;;2.38;;
80584;SDS011;70137;56.482;9.154;2023-05-31T10:58:06;8.20;;;2.33;;
80584;SDS011;70137;56.482;9.154;2023-05-31T11:00:31;17.20;;;3.00;;
80584;SDS011;70137;56.482;9.154;2023-05-31T11:03:06;11.88;;;2.58;;
80584;SDS011;70137;56.482;9.154;2023-05-31T11:05:31;8.38;;;2.40;;
80584;SDS011;70137;56.482;9.154;2023-05-31T11:07:58;13.35;;;2.60;;
80584;SDS011;70137;56.482;9.154;2023-05-31T11:10:27;9.50;;;2.13;;
80584;SDS011;70137;56.482;9.154;2023-05-31T11:13:02;12.25;;;2.28;;
80584;SDS011;70137;56.482;9.154;2023-05-31T11:15:38;8.77;;;2.00;;
80584;SDS011;70137;56.482;9.154;2023-05-31T11:18:06;11.63;;;2.55;;
80584;SDS011;70137;56.482;9.154;2023-05-31T11:20:34;13.40;;;2.80;;
80584;SDS011;70137;56.482;9.154;2023-05-31T11:25:44;9.85;;;2.03;;
80584;SDS011;70137;56.482;9.154;2023-05-31T11:28:49;12.90;;;2.75;;
80584;SDS011;70137;56.482;9.154;2023-05-31T11:34:23;6.55;;;1.90;;
80584;SDS011;70137;56.482;9.154;2023-05-31T11:36:56;7.85;;;2.03;;
80584;SDS011;70137;56.482;9.154;2023-05-31T11:39:24;6.05;;;1.77;;
80584;SDS011;70137;56.482;9.154;2023-05-31T11:41:49;10.45;;;2.05;;
80584;SDS011;70137;56.482;9.154;2023-05-31T11:44:26;9.40;;;1.80;;
80584;SDS011;70137;56.482;9.154;2023-05-31T11:46:58;11.77;;;2.33;;
80584;SDS011;70137;56.482;9.154;2023-05-31T11:49:26;10.55;;;1.52;;
80584;SDS011;70137;56.482;9.154;2023-05-31T11:51:53;9.73;;;1.90;;
80584;SDS011;70137;56.482;9.154;2023-05-31T11:54:23;11.73;;;1.95;;
80584;SDS011;70137;56.482;9.154;2023-05-31T11:56:51;12.88;;;2.13;;
80584;SDS011;70137;56.482;9.154;2023-05-31T11:59:17;7.95;;;1.98;;
80584;SDS011;70137;56.482;9.154;2023-05-31T12:01:42;7.10;;;1.45;;
80584;SDS011;70137;56.482;9.154;2023-05-31T12:04:08;7.03;;;1.50;;
80584;SDS011;70137;56.482;9.154;2023-05-31T12:06:34;8.48;;;1.98;;
80584;SDS011;70137;56.482;9.154;2023-05-31T12:09:00;6.65;;;1.48;;
80584;SDS011;70137;56.482;9.154;2023-05-31T12:11:27;8.18;;;1.67;;
80584;SDS011;70137;56.482;9.154;2023-05-31T12:13:57;5.30;;;1.65;;
80584;SDS011;70137;56.482;9.154;2023-05-31T12:16:23;5.78;;;1.50;;
80584;SDS011;70137;56.482;9.154;2023-05-31T12:18:50;9.20;;;1.85;;
80584;SDS011;70137;56.482;9.154;2023-05-31T12:21:16;6.93;;;1.75;;
80584;SDS011;70137;56.482;9.154;2023-05-31T12:23:50;7.57;;;1.88;;
80584;SDS011;70137;56.482;9.154;2023-05-31T12:26:16;5.80;;;1.70;;
80584;SDS011;70137;56.482;9.154;2023-05-31T12:28:42;6.55;;;1.35;;
80584;SDS011;70137;56.482;9.154;2023-05-31T12:31:07;7.22;;;1.60;;
80584;SDS011;70137;56.482;9.154;2023-05-31T12:33:36;8.27;;;1.88;;
80584;SDS011;70137;56.482;9.154;2023-05-31T12:36:03;6.78;;;1.42;;
80584;SDS011;70137;56.482;9.154;2023-05-31T12:38:28;9.73;;;1.70;;
80584;SDS011;70137;56.482;9.154;2023-05-31T12:40:55;9.05;;;1.50;;
80584;SDS011;70137;56.482;9.154;2023-05-31T12:43:20;9.70;;;2.03;;
80584;SDS011;70137;56.482;9.154;2023-05-31T12:45:46;6.50;;;1.73;;
80584;SDS011;70137;56.482;9.154;2023-05-31T12:48:11;6.63;;;1.70;;
80584;SDS011;70137;56.482;9.154;2023-05-31T12:50:37;6.65;;;1.40;;
80584;SDS011;70137;56.482;9.154;2023-05-31T12:53:09;7.10;;;1.90;;
80584;SDS011;70137;56.482;9.154;2023-05-31T12:55:34;6.68;;;2.58;;
80584;SDS011;70137;56.482;9.154;2023-05-31T12:58:00;5.80;;;1.60;;
80584;SDS011;70137;56.482;9.154;2023-05-31T13:00:25;7.07;;;1.60;;
80584;SDS011;70137;56.482;9.154;2023-05-31T13:02:51;5.97;;;1.63;;
80584;SDS011;70137;56.482;9.154;2023-05-31T13:05:17;6.72;;;1.80;;
80584;SDS011;70137;56.482;9.154;2023-05-31T13:07:42;7.90;;;1.98;;
80584;SDS011;70137;56.482;9.154;2023-05-31T13:10:08;8.20;;;1.95;;
80584;SDS011;70137;56.482;9.154;2023-05-31T13:12:34;5.10;;;1.60;;
80584;SDS011;70137;56.482;9.154;2023-05-31T13:14:59;12.50;;;1.95;;
80584;SDS011;70137;56.482;9.154;2023-05-31T13:17:25;6.93;;;2.08;;
80584;SDS011;70137;56.482;9.154;2023-05-31T13:19:50;6.32;;;1.55;;
80584;SDS011;70137;56.482;9.154;2023-05-31T13:22:16;10.13;;;1.75;;
80584;SDS011;70137;56.482;9.154;2023-05-31T13:24:41;6.38;;;1.58;;
80584;SDS011;70137;56.482;9.154;2023-05-31T13:27:06;9.73;;;1.98;;
80584;SDS011;70137;56.482;9.154;2023-05-31T13:29:34;6.53;;;1.73;;
80584;SDS011;70137;56.482;9.154;2023-05-31T13:32:00;3.92;;;1.42;;
80584;SDS011;70137;56.482;9.154;2023-05-31T13:34:25;6.97;;;1.90;;
80584;SDS011;70137;56.482;9.154;2023-05-31T13:36:51;10.00;;;1.90;;
80584;SDS011;70137;56.482;9.154;2023-05-31T13:39:16;9.18;;;1.98;;
80584;SDS011;70137;56.482;9.154;2023-05-31T13:41:42;11.40;;;1.80;;
80584;SDS011;70137;56.482;9.154;2023-05-31T13:44:08;6.90;;;1.52;;
80584;SDS011;70137;56.482;9.154;2023-05-31T13:46:34;7.47;;;1.60;;
80584;SDS011;70137;56.482;9.154;2023-05-31T13:49:00;9.40;;;1.60;;
80584;SDS011;70137;56.482;9.154;2023-05-31T13:51:25;6.30;;;1.73;;
80584;SDS011;70137;56.482;9.154;2023-05-31T13:53:51;7.38;;;1.70;;
80584;SDS011;70137;56.482;9.154;2023-05-31T13:56:16;4.30;;;1.30;;
80584;SDS011;70137;56.482;9.154;2023-05-31T13:58:41;8.60;;;1.85;;
80584;SDS011;70137;56.482;9.154;2023-05-31T14:01:07;7.53;;;2.08;;
80584;SDS011;70137;56.482;9.154;2023-05-31T14:03:33;5.07;;;1.50;;
80584;SDS011;70137;56.482;9.154;2023-05-31T14:05:58;5.13;;;1.50;;
80584;SDS011;70137;56.482;9.154;2023-05-31T14:08:24;6.15;;;1.48;;
80584;SDS011;70137;56.482;9.154;2023-05-31T14:10:50;8.63;;;1.38;;
80584;SDS011;70137;56.482;9.154;2023-05-31T14:13:16;8.05;;;1.45;;
80584;SDS011;70137;56.482;9.154;2023-05-31T14:15:43;6.50;;;1.20;;
80584;SDS011;70137;56.482;9.154;2023-05-31T14:18:09;6.10;;;1.90;;
80584;SDS011;70137;56.482;9.154;2023-05-31T14:20:35;7.15;;;1.42;;
80584;SDS011;70137;56.482;9.154;2023-05-31T14:23:01;8.10;;;1.80;;
80584;SDS011;70137;56.482;9.154;2023-05-31T14:25:27;7.05;;;1.95;;
80584;SDS011;70137;56.482;9.154;2023-05-31T14:27:53;10.07;;;2.28;;
80584;SDS011;70137;56.482;9.154;2023-05-31T14:30:18;5.55;;;1.55;;
80584;SDS011;70137;56.482;9.154;2023-05-31T14:32:43;7.55;;;2.10;;
80584;SDS011;70137;56.482;9.154;2023-05-31T14:35:09;7.15;;;1.92;;
80584;SDS011;70137;56.482;9.154;2023-05-31T14:37:38;6.03;;;1.80;;
80584;SDS011;70137;56.482;9.154;2023-05-31T14:40:04;5.78;;;1.70;;
80584;SDS011;70137;56.482;9.154;2023-05-31T14:42:30;6.72;;;1.60;;
80584;SDS011;70137;56.482;9.154;2023-05-31T14:44:55;6.60;;;1.42;;
80584;SDS011;70137;56.482;9.154;2023-05-31T14:47:21;7.72;;;1.80;;
80584;SDS011;70137;56.482;9.154;2023-05-31T14:49:46;7.45;;;1.85;;
80584;SDS011;70137;56.482;9.154;2023-05-31T14:52:12;6.78;;;1.65;;